createdAt,value
2019-05-14T00:01:33.827Z,54.10
2019-05-14T00:04:07.503Z,54.70
2019-05-14T00:06:47.687Z,54.00
2019-05-14T00:09:14.335Z,54.00
2019-05-14T00:11:48.214Z,54.20
2019-05-14T00:14:22.103Z,54.70
2019-05-14T00:16:53.296Z,54.10
2019-05-14T00:19:27.895Z,54.10
2019-05-14T00:22:04.370Z,54.10
2019-05-14T00:24:41.637Z,54.10
2019-05-14T00:27:11.421Z,54.10
2019-05-14T00:29:45.555Z,54.70
2019-05-14T00:32:12.141Z,54.00
2019-05-14T00:34:48.123Z,54.00
2019-05-14T00:37:17.891Z,54.00
2019-05-14T00:39:52.178Z,54.20
2019-05-14T00:42:21.616Z,54.10
2019-05-14T00:44:54.654Z,54.10
2019-05-14T00:47:23.897Z,54.20
2019-05-14T00:49:51.728Z,54.20
2019-05-14T00:52:31.393Z,54.20
2019-05-14T00:55:02.389Z,54.80
2019-05-14T00:57:33.015Z,54.20
2019-05-14T01:00:07.855Z,54.10
2019-05-14T01:02:35.636Z,54.20
2019-05-14T01:08:08.452Z,54.20
2019-05-14T01:10:41.847Z,54.10
2019-05-14T01:13:15.760Z,54.80
2019-05-14T01:15:42.264Z,54.10
2019-05-14T01:18:15.162Z,54.10
2019-05-14T01:20:48.936Z,54.10
2019-05-14T01:23:22.232Z,54.10
2019-05-14T01:25:51.628Z,54.10
2019-05-14T01:28:26.829Z,54.20
2019-05-14T01:30:53.509Z,54.10
2019-05-14T01:33:29.151Z,54.20
2019-05-14T01:36:02.338Z,54.20
2019-05-14T01:38:35.282Z,54.10
2019-05-14T01:41:11.799Z,54.10
2019-05-14T01:43:41.755Z,54.20
2019-05-14T01:46:13.726Z,54.20
2019-05-14T01:48:46.496Z,54.20
2019-05-14T01:51:13.172Z,54.20
2019-05-14T01:53:52.106Z,54.20
2019-05-14T01:56:18.773Z,54.20
2019-05-14T01:58:52.371Z,54.20
2019-05-14T02:01:26.112Z,54.20
2019-05-14T02:03:52.725Z,54.20
2019-05-14T02:06:26.027Z,54.10
2019-05-14T02:09:06.498Z,54.20
2019-05-14T02:11:41.840Z,54.20
2019-05-14T02:14:08.580Z,54.20
2019-05-14T02:16:35.156Z,54.20
2019-05-14T02:19:08.082Z,54.20
2019-05-14T02:21:42.575Z,54.30
2019-05-14T02:24:17.398Z,54.30
2019-05-14T02:26:51.720Z,54.30
2019-05-14T02:29:24.586Z,54.30
2019-05-14T02:31:59.834Z,54.30
2019-05-14T02:34:29.777Z,54.30
2019-05-14T02:37:01.203Z,54.40
2019-05-14T02:39:40.557Z,54.30
2019-05-14T02:42:13.624Z,54.30
2019-05-14T02:44:41.040Z,54.40
2019-05-14T02:50:00.450Z,54.40
2019-05-14T02:52:33.959Z,54.40
2019-05-14T02:55:03.326Z,54.50
2019-05-14T02:57:39.180Z,54.40
2019-05-14T03:00:09.811Z,54.50
2019-05-14T03:02:42.375Z,54.50
2019-05-14T03:05:19.001Z,54.40
2019-05-14T03:07:50.911Z,54.40
2019-05-14T03:10:24.195Z,54.50
2019-05-14T03:12:59.051Z,54.40
2019-05-14T03:15:25.356Z,54.40
2019-05-14T03:17:59.978Z,54.50
2019-05-14T03:20:28.886Z,54.50
2019-05-14T03:23:13.744Z,54.50
2019-05-14T03:25:39.972Z,54.40
2019-05-14T03:28:13.352Z,54.50
2019-05-14T03:30:51.479Z,54.40
2019-05-14T03:33:21.987Z,54.50
2019-05-14T03:36:01.104Z,54.50
2019-05-14T03:38:25.008Z,54.50
2019-05-14T03:41:00.155Z,54.50
2019-05-14T03:43:49.363Z,54.50
2019-05-14T03:46:41.231Z,54.50
2019-05-14T03:48:51.140Z,54.50
2019-05-14T03:51:24.077Z,54.50
2019-05-14T03:54:01.043Z,54.60
2019-05-14T03:56:25.309Z,54.60
2019-05-14T03:59:00.544Z,54.60
2019-05-14T04:01:39.707Z,54.60
2019-05-14T04:04:11.392Z,54.70
2019-05-14T04:06:40.311Z,54.70
2019-05-14T04:09:13.510Z,54.70
2019-05-14T04:11:41.328Z,54.70
2019-05-14T04:14:20.151Z,54.70
2019-05-14T04:17:04.757Z,54.70
2019-05-14T04:19:23.063Z,54.70
2019-05-14T04:22:11.437Z,54.80
2019-05-14T04:24:45.594Z,54.80
2019-05-14T04:27:13.656Z,54.80
2019-05-14T04:29:49.778Z,54.90
2019-05-14T04:32:20.010Z,54.90
2019-05-14T04:34:59.378Z,54.90
2019-05-14T04:37:23.421Z,54.80
2019-05-14T04:39:59.108Z,55.00
2019-05-14T04:42:24.604Z,54.90
2019-05-14T04:45:00.782Z,55.00
2019-05-14T04:47:37.173Z,55.10
2019-05-14T04:50:01.230Z,55.10
2019-05-14T04:52:33.864Z,55.10
2019-05-14T04:55:00.397Z,55.20
2019-05-14T04:57:38.900Z,55.10
2019-05-14T05:00:04.941Z,55.10
2019-05-14T05:02:39.738Z,55.20
2019-05-14T05:05:09.021Z,55.20
2019-05-14T05:07:35.033Z,55.20
2019-05-14T05:10:10.352Z,55.20
2019-05-14T05:12:50.206Z,55.30
2019-05-14T05:15:19.548Z,55.30
2019-05-14T05:17:51.790Z,55.30
2019-05-14T05:20:19.740Z,55.40
2019-05-14T05:22:48.902Z,55.40
2019-05-14T05:25:22.224Z,55.40
2019-05-14T05:27:59.772Z,55.40
2019-05-14T05:30:26.543Z,55.50
2019-05-14T05:32:59.866Z,55.50
2019-05-14T05:35:29.017Z,55.50
2019-05-14T05:38:01.301Z,55.50
2019-05-14T05:40:34.359Z,55.60
2019-05-14T05:43:00.856Z,55.60
2019-05-14T05:45:40.651Z,55.70
2019-05-14T05:48:08.197Z,55.70
2019-05-14T05:50:42.165Z,55.80
2019-05-14T05:53:09.030Z,55.70
2019-05-14T05:58:19.700Z,55.80
2019-05-14T06:00:46.413Z,55.80
2019-05-14T06:03:21.004Z,55.80
2019-05-14T06:05:59.613Z,55.80
2019-05-14T06:08:32.958Z,55.80
2019-05-14T06:11:13.209Z,55.80
2019-05-14T06:14:00.296Z,55.90
2019-05-14T06:16:33.348Z,56.00
2019-05-14T06:19:01.422Z,56.00
2019-05-14T06:21:34.619Z,56.10
2019-05-14T06:24:09.040Z,56.00
2019-05-14T06:26:42.690Z,56.10
2019-05-14T06:29:15.802Z,56.20
2019-05-14T06:31:42.281Z,56.20
2019-05-14T06:34:14.826Z,56.20
2019-05-14T06:36:48.802Z,56.50
2019-05-14T06:39:18.103Z,56.50
2019-05-14T06:41:44.013Z,56.60
2019-05-14T06:44:18.666Z,56.70
2019-05-14T06:46:52.923Z,56.60
2019-05-14T06:49:19.740Z,56.60
2019-05-14T06:51:55.552Z,56.70
2019-05-14T06:54:22.434Z,56.70
2019-05-14T06:56:48.995Z,56.70
2019-05-14T06:59:22.149Z,56.70
2019-05-14T07:01:55.365Z,56.80
2019-05-14T07:04:23.520Z,56.80
2019-05-14T07:06:59.020Z,56.90
2019-05-14T07:09:58.201Z,56.80
2019-05-14T07:12:31.001Z,57.00
2019-05-14T07:15:04.297Z,56.90
2019-05-14T07:17:38.397Z,57.00
2019-05-14T07:20:09.111Z,57.00
2019-05-14T07:22:42.206Z,57.10
2019-05-14T07:25:21.533Z,57.10
2019-05-14T07:28:08.712Z,57.20
2019-05-14T07:30:41.133Z,57.20
2019-05-14T07:33:09.442Z,57.30
2019-05-14T07:35:42.518Z,57.20
2019-05-14T07:38:09.217Z,57.30
2019-05-14T07:40:41.867Z,57.30
2019-05-14T07:43:14.818Z,57.50
2019-05-14T07:45:49.099Z,57.30
2019-05-14T07:48:15.682Z,57.30
2019-05-14T07:53:38.569Z,57.40
2019-05-14T07:56:09.436Z,57.30
2019-05-14T08:01:28.161Z,57.20
2019-05-14T08:04:01.254Z,57.20
2019-05-14T08:06:28.126Z,57.30
2019-05-14T08:09:01.393Z,57.00
2019-05-14T08:11:34.545Z,57.40
2019-05-14T08:14:13.622Z,57.30
2019-05-14T08:16:48.739Z,57.40
2019-05-14T08:21:58.720Z,57.30
2019-05-14T08:24:38.984Z,57.40
2019-05-14T08:27:05.423Z,57.40
2019-05-14T08:29:40.071Z,57.50
2019-05-14T08:32:08.708Z,57.30
2019-05-14T08:34:41.658Z,57.60
2019-05-14T08:37:14.804Z,57.30
2019-05-14T08:39:41.112Z,55.50
2019-05-14T08:42:13.772Z,56.60
2019-05-14T08:44:40.237Z,56.40
2019-05-14T08:47:12.802Z,55.90
2019-05-14T08:49:46.214Z,55.30
2019-05-14T08:52:16.077Z,56.20
2019-05-14T08:54:41.956Z,54.60
2019-05-14T08:57:15.156Z,55.00
2019-05-14T08:59:48.794Z,55.00
2019-05-14T09:02:21.344Z,54.50
2019-05-14T09:04:55.253Z,53.80
2019-05-14T09:07:21.834Z,53.60
2019-05-14T09:09:54.674Z,53.70
2019-05-14T09:12:34.969Z,54.70
2019-05-14T09:15:15.050Z,55.30
2019-05-14T09:17:48.645Z,55.20
2019-05-14T09:20:22.290Z,54.90
2019-05-14T09:22:55.183Z,54.40
2019-05-14T09:25:21.425Z,54.20
2019-05-14T09:27:54.548Z,54.60
2019-05-14T09:30:29.072Z,54.20
2019-05-14T09:32:55.405Z,52.70
2019-05-14T09:35:29.199Z,53.50
2019-05-14T09:37:55.711Z,54.90
2019-05-14T09:40:29.086Z,55.80
2019-05-14T09:45:47.991Z,56.90
2019-05-14T09:48:20.557Z,58.00
2019-05-14T09:50:53.849Z,58.30
2019-05-14T09:56:18.939Z,57.80
2019-05-14T09:58:51.637Z,57.90
2019-05-14T10:01:19.345Z,55.20
2019-05-14T10:03:52.753Z,54.20
2019-05-14T10:06:20.702Z,54.20
2019-05-14T10:08:48.614Z,51.70
2019-05-14T10:11:40.693Z,51.10
2019-05-14T10:14:21.209Z,49.40
2019-05-14T10:16:49.066Z,47.40
2019-05-14T10:19:15.600Z,44.40
2019-05-14T10:21:49.380Z,46.30
2019-05-14T10:24:18.350Z,44.30
2019-05-14T10:27:04.926Z,45.40
2019-05-14T10:29:31.170Z,44.10
2019-05-14T10:32:04.226Z,46.80
2019-05-14T10:34:30.570Z,45.90
2019-05-14T10:37:03.659Z,44.60
2019-05-14T10:39:39.118Z,44.70
2019-05-14T10:42:11.240Z,43.70
2019-05-14T10:44:38.701Z,41.10
2019-05-14T10:47:31.711Z,44.40
2019-05-14T10:50:13.682Z,42.90
2019-05-14T10:52:40.402Z,42.10
2019-05-14T10:55:13.350Z,41.50
2019-05-14T10:57:46.382Z,41.10
2019-05-14T11:03:04.109Z,41.90
2019-05-14T11:05:30.361Z,41.60
2019-05-14T11:07:58.547Z,41.80
2019-05-14T11:10:31.595Z,40.20
2019-05-14T11:12:59.413Z,40.80
2019-05-14T11:15:32.730Z,40.60
2019-05-14T11:18:08.466Z,39.00
2019-05-14T11:20:34.270Z,38.50
2019-05-14T11:23:00.642Z,38.10
2019-05-14T11:25:39.711Z,39.10
2019-05-14T11:28:06.056Z,39.10
2019-05-14T11:30:39.328Z,36.90
2019-05-14T11:33:12.637Z,35.50
2019-05-14T11:35:39.492Z,36.40
2019-05-14T11:38:28.588Z,36.80
2019-05-14T11:40:41.303Z,36.00
2019-05-14T11:43:14.460Z,36.60
2019-05-14T11:45:40.926Z,37.70
2019-05-14T11:48:13.780Z,38.30
2019-05-14T11:50:49.186Z,38.50
2019-05-14T11:53:22.341Z,36.40
2019-05-14T11:55:50.433Z,36.20
2019-05-14T11:58:23.453Z,37.50
2019-05-14T12:00:58.472Z,34.70
2019-05-14T12:03:24.485Z,34.90
2019-05-14T12:05:58.639Z,36.30
2019-05-14T12:08:31.843Z,35.50
2019-05-14T12:11:05.236Z,34.40
2019-05-14T12:13:39.415Z,33.70
2019-05-14T12:16:08.346Z,30.80
2019-05-14T12:18:41.793Z,33.80
2019-05-14T12:21:14.742Z,34.20
2019-05-14T12:23:41.102Z,35.70
2019-05-14T12:26:21.125Z,35.50
2019-05-14T12:28:56.253Z,33.50
2019-05-14T12:31:22.439Z,34.50
2019-05-14T12:33:58.224Z,33.10
2019-05-14T12:36:23.765Z,33.30
2019-05-14T12:39:03.349Z,34.50
2019-05-14T12:41:29.606Z,34.60
2019-05-14T12:44:02.423Z,34.00
2019-05-14T12:46:29.567Z,33.50
2019-05-14T12:49:03.059Z,32.50
2019-05-14T12:51:42.808Z,31.70
2019-05-14T12:54:09.422Z,32.60
2019-05-14T12:56:35.624Z,33.00
2019-05-14T12:59:08.659Z,33.90
2019-05-14T13:01:34.858Z,34.60
2019-05-14T13:04:08.566Z,34.20
2019-05-14T13:06:34.907Z,33.00
2019-05-14T13:09:09.381Z,34.20
2019-05-14T13:11:42.905Z,34.30
2019-05-14T13:14:16.334Z,34.30
2019-05-14T13:16:42.582Z,32.40
2019-05-14T13:19:09.321Z,33.00
2019-05-14T13:21:42.552Z,32.20
2019-05-14T13:24:08.979Z,31.60
2019-05-14T13:27:09.425Z,31.30
2019-05-14T13:29:42.496Z,30.80
2019-05-14T13:32:12.374Z,31.50
2019-05-14T13:34:39.372Z,32.00
2019-05-14T13:37:12.035Z,32.90
2019-05-14T13:39:39.920Z,33.70
2019-05-14T13:42:12.895Z,32.90
2019-05-14T13:44:46.431Z,32.30
2019-05-14T13:47:12.780Z,32.80
2019-05-14T13:49:48.482Z,32.20
2019-05-14T13:52:29.284Z,33.00
2019-05-14T13:55:02.315Z,33.20
2019-05-14T13:57:28.931Z,33.70
2019-05-14T13:59:55.390Z,34.00
2019-05-14T14:02:31.364Z,34.80
2019-05-14T14:05:03.504Z,32.60
2019-05-14T14:07:29.722Z,33.90
2019-05-14T14:10:02.903Z,34.90
2019-05-14T14:12:35.927Z,35.90
2019-05-14T14:15:04.282Z,36.00
2019-05-14T14:17:39.032Z,36.60
2019-05-14T14:20:05.401Z,36.80
2019-05-14T14:22:39.967Z,37.20
2019-05-14T14:25:13.087Z,37.50
2019-05-14T14:27:48.743Z,38.10
2019-05-14T14:30:15.499Z,37.10
2019-05-14T14:32:49.475Z,36.00
2019-05-14T14:35:16.172Z,35.40
2019-05-14T14:37:49.446Z,36.50
2019-05-14T14:40:23.166Z,37.30
2019-05-14T14:43:18.551Z,36.80
2019-05-14T14:45:51.420Z,37.50
2019-05-14T14:48:24.417Z,37.80
2019-05-14T14:50:50.905Z,36.40
2019-05-14T14:53:20.045Z,37.20
2019-05-14T14:55:51.877Z,37.50
2019-05-14T14:58:24.798Z,37.50
2019-05-14T15:00:51.166Z,38.30
2019-05-14T15:03:21.312Z,38.00
2019-05-14T15:05:51.990Z,37.30
2019-05-14T15:11:22.897Z,37.40
2019-05-14T15:13:49.134Z,37.80
2019-05-14T15:16:21.945Z,38.70
2019-05-14T15:18:55.089Z,38.40
2019-05-14T15:21:40.060Z,38.90
2019-05-14T15:24:15.689Z,39.50
2019-05-14T15:29:24.292Z,40.10
2019-05-14T15:31:50.629Z,40.10
2019-05-14T15:34:23.615Z,40.20
2019-05-14T15:36:49.947Z,39.80
2019-05-14T15:39:22.696Z,40.00
2019-05-14T15:41:49.917Z,39.80
2019-05-14T15:44:23.113Z,39.80
2019-05-14T15:47:02.377Z,40.00
2019-05-14T15:49:28.973Z,39.60
2019-05-14T15:52:01.746Z,40.10
2019-05-14T15:54:46.639Z,40.30
2019-05-14T15:57:09.184Z,40.90
2019-05-14T15:59:42.128Z,40.50
2019-05-14T16:02:09.574Z,40.30
2019-05-14T16:04:42.210Z,40.90
2019-05-14T16:07:18.450Z,40.70
2019-05-14T16:09:51.000Z,40.60
2019-05-14T16:12:19.643Z,39.70
2019-05-14T16:14:52.264Z,39.50
2019-05-14T16:17:24.585Z,39.20
2019-05-14T16:22:39.988Z,40.90
2019-05-14T16:25:13.804Z,40.70
2019-05-14T16:27:40.154Z,40.90
2019-05-14T16:30:15.039Z,41.00
2019-05-14T16:32:48.652Z,40.90
2019-05-14T16:35:15.163Z,41.30
2019-05-14T16:37:48.478Z,41.00
2019-05-14T16:40:15.012Z,41.20
2019-05-14T16:42:48.507Z,41.20
2019-05-14T16:45:22.259Z,41.70
2019-05-14T16:48:01.512Z,41.40
2019-05-14T16:50:28.640Z,41.40
2019-05-14T16:53:01.514Z,42.10
2019-05-14T16:55:30.622Z,42.30
2019-05-14T16:58:02.756Z,42.10
2019-05-14T17:00:29.534Z,42.50
2019-05-14T17:03:02.830Z,42.30
2019-05-14T17:05:30.195Z,42.20
2019-05-14T17:08:03.099Z,41.90
2019-05-14T17:10:38.810Z,42.40
2019-05-14T17:13:17.859Z,42.50
2019-05-14T17:15:48.541Z,41.90
2019-05-14T17:18:21.704Z,42.30
2019-05-14T17:20:54.910Z,42.10
2019-05-14T17:23:21.466Z,42.50
2019-05-14T17:25:57.834Z,42.60
2019-05-14T17:28:40.096Z,42.70
2019-05-14T17:31:24.411Z,42.20
2019-05-14T17:34:02.537Z,42.50
2019-05-14T17:36:29.252Z,42.30
2019-05-14T17:39:01.673Z,42.50
2019-05-14T17:41:34.664Z,43.00
2019-05-14T17:44:09.014Z,42.80
2019-05-14T17:46:51.694Z,43.20
2019-05-14T17:49:28.330Z,43.20
2019-05-14T17:52:02.181Z,43.30
2019-05-14T17:54:28.651Z,43.20
2019-05-14T17:57:02.285Z,43.50
2019-05-14T18:02:19.866Z,43.60
2019-05-14T18:04:56.262Z,43.20
2019-05-14T18:07:21.884Z,43.40
2019-05-14T18:09:54.791Z,43.40
2019-05-14T18:12:30.465Z,43.30
2019-05-14T18:15:02.520Z,43.50
2019-05-14T18:17:29.606Z,43.50
2019-05-14T18:20:02.981Z,43.60
2019-05-14T18:22:48.674Z,43.80
2019-05-14T18:25:21.373Z,43.60
2019-05-14T18:27:55.076Z,43.80
2019-05-14T18:30:28.902Z,43.70
2019-05-14T18:32:55.297Z,43.90
2019-05-14T18:35:21.659Z,43.70
2019-05-14T18:37:54.879Z,43.50
2019-05-14T18:40:21.250Z,43.70
2019-05-14T18:42:54.194Z,43.40
2019-05-14T18:45:29.443Z,43.60
2019-05-14T18:48:08.642Z,43.70
2019-05-14T18:50:34.861Z,43.70
2019-05-14T18:53:08.695Z,43.80
2019-05-14T18:55:38.414Z,43.80
2019-05-14T18:58:11.258Z,43.90
2019-05-14T19:00:38.879Z,43.90
2019-05-14T19:03:11.757Z,44.00
2019-05-14T19:05:44.706Z,43.90
2019-05-14T19:08:11.071Z,44.20
2019-05-14T19:10:43.729Z,43.90
2019-05-14T19:13:10.063Z,44.10
2019-05-14T19:15:43.437Z,44.20
2019-05-14T19:18:09.674Z,44.20
2019-05-14T19:20:43.215Z,44.40
2019-05-14T19:26:00.137Z,44.50
2019-05-14T19:28:32.822Z,45.20
2019-05-14T19:31:05.787Z,44.70
2019-05-14T19:33:32.228Z,44.70
2019-05-14T19:36:05.063Z,44.80
2019-05-14T19:38:38.856Z,44.90
2019-05-14T19:41:05.511Z,44.90
2019-05-14T19:43:38.362Z,45.00
2019-05-14T19:46:18.719Z,45.00
2019-05-14T19:48:59.175Z,45.00
2019-05-14T19:51:50.295Z,45.10
2019-05-14T19:54:19.398Z,45.10
2019-05-14T19:56:53.252Z,45.40
2019-05-14T19:59:20.628Z,45.20
2019-05-14T20:01:48.475Z,45.40
2019-05-14T20:04:21.868Z,45.50
2019-05-14T20:06:49.315Z,45.70
2019-05-14T20:09:23.182Z,45.50
2019-05-14T20:11:49.404Z,45.50
2019-05-14T20:14:15.644Z,45.70
2019-05-14T20:16:49.248Z,45.80
2019-05-14T20:19:15.841Z,45.80
2019-05-14T20:21:49.149Z,45.80
2019-05-14T20:24:15.400Z,45.90
2019-05-14T20:26:41.647Z,45.80
2019-05-14T20:29:14.339Z,45.80
2019-05-14T20:31:48.203Z,46.00
2019-05-14T20:34:20.819Z,45.90
2019-05-14T20:36:48.182Z,45.90
2019-05-14T20:39:21.071Z,46.10
2019-05-14T20:41:49.039Z,46.00
2019-05-14T20:44:22.222Z,45.90
2019-05-14T20:46:54.880Z,46.20
2019-05-14T20:49:33.971Z,46.40
2019-05-14T20:52:08.620Z,46.10
2019-05-14T20:54:35.277Z,46.30
2019-05-14T20:57:31.222Z,46.10
2019-05-14T20:59:54.921Z,46.10
2019-05-14T21:02:29.528Z,46.40
2019-05-14T21:05:05.000Z,46.60
2019-05-14T21:07:30.377Z,46.50
2019-05-14T21:10:03.594Z,46.50
2019-05-14T21:12:29.943Z,46.60
2019-05-14T21:14:56.209Z,46.70
2019-05-14T21:17:31.340Z,47.00
2019-05-14T21:20:04.269Z,46.60
2019-05-14T21:22:39.711Z,46.70
2019-05-14T21:25:05.143Z,46.70
2019-05-14T21:27:47.575Z,46.90
2019-05-14T21:30:09.121Z,46.80
2019-05-14T21:32:34.577Z,46.70
2019-05-14T21:35:07.411Z,46.80
2019-05-14T21:37:33.757Z,46.70
2019-05-14T21:40:00.013Z,46.70
2019-05-14T21:42:32.688Z,46.70
2019-05-14T21:45:07.547Z,46.70
2019-05-14T21:48:05.477Z,46.70
2019-05-14T21:50:45.999Z,46.70
2019-05-14T21:53:19.393Z,46.70
2019-05-14T21:55:52.492Z,46.20
2019-05-14T21:58:19.775Z,47.70
2019-05-14T22:00:59.053Z,47.00
2019-05-14T22:03:25.158Z,47.00
2019-05-14T22:05:59.331Z,47.00
2019-05-14T22:08:27.877Z,46.90
2019-05-14T22:11:00.635Z,47.60
2019-05-14T22:13:33.793Z,47.10
2019-05-14T22:16:00.146Z,47.10
2019-05-14T22:18:32.877Z,47.10
2019-05-14T22:20:59.330Z,47.40
2019-05-14T22:23:25.685Z,47.10
2019-05-14T22:25:58.339Z,47.10
2019-05-14T22:28:31.294Z,47.20
2019-05-14T22:31:04.426Z,47.20
2019-05-14T22:33:30.671Z,47.10
2019-05-14T22:35:58.079Z,47.20
2019-05-14T22:38:31.162Z,47.50
2019-05-14T22:40:59.228Z,47.40
2019-05-14T22:43:31.702Z,47.70
2019-05-14T22:46:05.029Z,47.60
2019-05-14T22:48:44.427Z,47.50
2019-05-14T22:51:24.712Z,47.80
2019-05-14T22:53:51.061Z,48.20
2019-05-14T22:56:23.772Z,48.00
2019-05-14T22:58:50.011Z,48.10
2019-05-14T23:01:23.323Z,48.00
2019-05-14T23:03:49.673Z,48.60
2019-05-14T23:06:23.026Z,48.40
2019-05-14T23:08:57.995Z,48.50
2019-05-14T23:11:23.742Z,48.40
2019-05-14T23:13:58.202Z,48.90
2019-05-14T23:16:34.358Z,48.80
2019-05-14T23:19:07.958Z,49.10
2019-05-14T23:21:34.552Z,48.50
2019-05-14T23:24:00.823Z,48.40
2019-05-14T23:26:34.151Z,48.50
2019-05-14T23:29:07.370Z,48.90
2019-05-14T23:31:59.886Z,48.70
2019-05-14T23:34:40.224Z,48.70
2019-05-14T23:37:08.180Z,48.50
2019-05-14T23:39:41.242Z,48.90
2019-05-14T23:42:09.078Z,48.50
2019-05-14T23:44:42.071Z,49.00
2019-05-14T23:47:08.397Z,48.60
2019-05-14T23:49:34.744Z,48.50
2019-05-14T23:52:07.661Z,49.10
2019-05-14T23:54:41.006Z,48.40
2019-05-14T23:57:14.190Z,48.40
2019-05-14T23:59:40.418Z,48.40
